Weather observations for the past three days for
Munising - Munising Lakeshore Observation
Metric (Imperial)
Date Time (edt) Wind (kph) Vis. (km) Weather Sky Cond. Temperature (ºC) Relative Humidity Wind Chill (°C) Heat Index (°C) Pressure Precipitation (cm)
Air Dwpt 6 hour altimeter (cm) sea level (mb) 1 hr 3 hr 6 hr
Max. Min.
10 09:56 NW 20 0.00 NULL NULL 3.9 -1.7 67% 0 76.2 1016.5
10 08:56 N 19 0.00 NULL NULL 3.9 -1.1 70% 0 76.17 1016.0
10 07:56 NW 13 0.00 NULL NULL 3.9 -1.1 4.4 1.1 70% 1 76.1 1015.3
10 06:56 Vrbl 11 0.00 NULL NULL 3.3 -1.7 70% 1 76.02 1014.1
10 05:56 SW 7 0.00 NULL NULL 1.7 -1.7 78% -0 75.97 1013.6
10 04:56 SW 7 0.00 NULL NULL 2.8 -1.1 76% 1 75.92 1012.8
10 03:56 W 6 0.00 NULL NULL 2.8 -1.7 73% 75.9 1012.3
10 02:56 N 7 0.00 NULL NULL 3.9 0 76% 2 75.84 1011.9
10 01:56 N 11 0.00 NULL NULL 4.4 0 6.1 3.9 73% 2 75.87 1011.9
10 00:56 NW 19 G 30 0.00 NULL NULL 4.4 0.6 77% 1 75.82 1011.4
09 23:56 NW 19 G 35 0.00 NULL NULL 5.6 -1.7 60% 2 75.79 1010.9
09 22:56 Vrbl 6 0.00 NULL NULL 5.6 -0.6 65% 75.74 1010.3
09 21:56 Calm 0.00 NULL NULL 4.4 0.6 77% 75.72 1010.0
09 20:56 N 9 0.00 NULL NULL 5 0.6 73% 3 75.67 1009.3
09 19:56 N 9 0.00 NULL NULL 5 0 7.8 5 70% 3 75.62 1008.7
09 18:56 NW 19 G 33 0.00 NULL NULL 5 0 70% 2 75.57 1008.0
09 17:56 NW 26 G 43 0.00 NULL NULL 5 0 70% 1 75.49 1006.9
09 16:56 N 28 G 41 0.00 NULL NULL 5.6 0 68% 1 75.44 1006.1
09 15:56 NW 33 G 56 0.00 Breezy NULL 6.1 0.6 68% 2 75.31 1004.6
09 14:56 NW 26 0.00 NULL NULL 5.6 1.1 73% 2 75.21 1003.1
09 13:56 N 31 G 46 0.00 NULL NULL 6.7 -1.7 10 6.1 55% 3 75.11 1001.7
09 12:56 NW 26 G 44 0.00 NULL NULL 9.4 -3.9 39% 6 75.01 1000.5
09 11:56 N 15 0.00 NULL NULL 8.9 -2.8 44% 7 74.93 999.4
09 10:56 NW 19 G 35 0.00 NULL NULL 8.9 -1.7 48% 6 74.9 998.9
09 09:56 NW 20 0.00 NULL NULL 7.8 0.6 61% 5 74.85 998.3
09 08:56 NW 13 0.00 NULL NULL 7.2 0 61% 5 74.8 997.5
09 07:56 NW 6 0.00 NULL NULL 6.7 1.7 8.3 5 71% 74.78 997.2
09 06:56 W 9 0.00 NULL NULL 7.2 1.7 68% 6 74.78 997.4
09 05:56 SE 6 0.00 NULL NULL 6.7 1.1 68% 74.73 996.5
09 04:56 S 15 0.00 NULL NULL 6.7 0.6 65% 4 74.78 997.1
09 03:56 S 15 0.00 NULL NULL 5.6 0 68% 3 74.8 997.7
09 02:56 S 9 0.00 NULL NULL 5 -0.6 67% 3 74.88 998.9
09 01:56 SW 7 0.00 NULL NULL 5.6 0 8.3 5.6 68% 4 74.98 999.9
09 00:56 S 6 0.00 NULL NULL 5.6 0 68% 75.03 1000.7
08 23:56 SW 6 0.00 NULL NULL 6.7 0 63% 75.11 1001.8
08 22:56 SW 6 0.00 NULL NULL 8.3 -0.6 54% 75.16 1002.3
08 21:56 S 6 0.00 NULL NULL 7.2 -1.7 54% 75.21 1003.2
08 20:56 Calm 0.00 NULL NULL 7.2 -0.6 58% 75.23 1003.4
08 19:56 Calm 0.00 NULL NULL 7.8 -1.1 8.9 6.1 54% 75.23 1003.8 0.03
08 18:56 Vrbl 7 0.00 NULL NULL 8.3 -2.8 46% 7 75.26 1004.1
08 17:56 NE 6 0.00 NULL NULL 8.3 -2.8 46% 75.29 1004.3
08 16:56 NE 15 0.00 NULL NULL 7.8 -1.7 51% 6 75.31 1004.5 0.03
08 15:56 N 6 0.00 NULL NULL 7.2 0.6 63% 75.34 1005.0
08 14:56 N 15 0.00 NULL NULL 6.7 0.6 65% 4 75.39 1005.5 0.03
08 13:56 NE 19 0.00 NULL NULL 6.7 1.1 8.9 0.6 68% 4 75.44 1006.2
08 12:56 NE 15 0.00 NULL NULL 7.8 -1.1 54% 6 75.46 1006.8
08 11:56 NE 15 0.00 NULL NULL 7.8 1.1 63% 6 75.51 1007.3
08 10:56 E 9 0.00 NULL NULL 7.2 1.1 66% 6 75.54 1007.7
08 09:56 NE 6 0.00 NULL NULL 5.6 1.7 76% 75.59 1008.2
08 08:56 S 6 0.00 NULL NULL 3.9 1.7 86% 75.62 1008.8
08 07:56 S 11 0.00 NULL NULL 0.6 -0.6 0.6 -1.1 92% -2 75.62 1008.8
08 06:56 SE 6 0.00 NULL NULL -0.6 -1.1 96% 75.62 1008.8
08 05:56 S 13 0.00 NULL NULL 0 -0.6 96% -4 75.62 1008.7
08 04:56 S 11 0.00 NULL NULL -0.6 -1.1 96% -4 75.64 1009.0
08 03:56 S 11 0.00 NULL NULL 0 -0.6 96% -3 75.64 1009.2
08 02:56 S 7 0.00 NULL NULL -0.6 -1.1 96% -3 75.69 1009.7
08 01:56 S 6 0.00 NULL NULL 0 -0.6 6.7 0 96% 75.72 1010.2 0.03
08 00:56 S 7 0.00 NULL NULL 1.1 0.6 97% -1 75.74 1010.5
07 23:56 S 6 0.00 NULL NULL 2.2 1.1 93% 75.77 1010.7 0.03
07 22:56 NW 15 0.00 NULL NULL 5 1.7 79% 2 75.79 1011.0
07 21:56 S 7 0.00 NULL NULL 5 1.7 79% 4 75.72 1010.2
07 20:56 S 11 0.00 NULL NULL 6.1 1.1 71% 4 75.69 1009.9
07 19:56 Calm 0.00 NULL NULL 5 0 6.7 2.2 70% 75.67 1009.5 0.1
07 18:56 NE 13 0.00 NULL NULL 5 -0.6 67% 2 75.69 1009.7
07 17:56 N 11 0.00 NULL NULL 4.4 1.1 79% 2 75.69 1009.9
07 16:56 NE 6 0.00 NULL NULL 4.4 1.1 79% 75.69 1009.9 0.03 0.1
07 15:56 Calm 0.00 NULL NULL 4.4 0 73% 75.74 1010.6
07 14:56 NW 22 G 35 0.00 NULL NULL 3.3 -1.1 73% -1 75.79 1011.2 0.08
07 13:56 NE 17 0.00 NULL NULL 3.9 0 6.7 2.2 76% 0 75.77 1010.7
07 12:56 N 11 0.00 NULL NULL 3.9 0 76% 1 75.82 1011.5
07 11:56 NW 11 0.00 NULL NULL 6.1 -3.3 51% 4 75.82 1011.4
Date Time (edt) Wind (kph) Vis. (km) Weather Sky Cond. Air Dwpt Max. Min. Relative Humidity Wind Chill (°C) Heat Index (°C) altimeter (cm) sea level (mb) 1 hr 3 hr 6 hr
6 hour
Temperature (ºC) Pressure Precipitation (cm)